VALENCIA, VC current weather conditions

sailwx.info

Wind from 120 at 5 knots

Air temperature 20.0° C
Dewpoint 8.0° C

Last reported at 2015-Apr-21 10:00 UTC.
Time now 2015-Apr-21 13:11 UTC

Location: N 39°35' W 000°27'.
View on Google Maps.

See reports from other nearby stations

  
Tides and Currents Weather Stations Pressure Air Temp Water Temp Dewpoint Dewpoint Depression Visibility Wind Speed Wind Dir Waves Ship Positions
date/time (UTC)wind fromknots sea level pressurealtimeterstation pressurevisibilityair tempwater tempwave heightnotes
2015-Apr-21 10:00 120 5 20.0
2015-Apr-21 09:00 18.0
2015-Apr-21 08:00 15.0
2015-Apr-21 07:00 2.412.0
2015-Apr-21 06:00 9.0
2015-Apr-21 05:00 330 3 5.4 8.0
2015-Apr-21 04:00 5.4 8.0
2015-Apr-21 02:00 360 3 9.0
2015-Apr-21 01:00 360 4 10.0
2015-Apr-21 00:00 350 2 5.411.0
2015-Apr-20 23:00 11.0
2015-Apr-20 22:00 350 1 12.0
2015-Apr-20 21:00 170 2 gusting 13 15.0
2015-Apr-20 20:00 110 2 gusting 15 15.0
2015-Apr-20 19:00 090 5 15.0
2015-Apr-20 18:00 080 7 17.0
2015-Apr-20 17:00 100 8 19.0
2015-Apr-20 16:00 100 8 20.0
2015-Apr-20 15:00 090 9 20.0
2015-Apr-20 14:00 120 8 20.0
2015-Apr-20 13:00 130 8 20.0
2015-Apr-20 12:00 100 9 20.0
2015-Apr-20 11:00 5.420.0
2015-Apr-20 10:00 160 3 20.0
2015-Apr-20 09:00 5.419.0
2015-Apr-20 08:00 17.0
2015-Apr-20 07:00 12.0
2015-Apr-20 06:00 8.0
2015-Apr-20 05:00 7.0
2015-Apr-20 04:00 7.0
2015-Apr-20 03:00 7.0
2015-Apr-20 02:00 360 3 8.0
2015-Apr-20 01:00 9.0
2015-Apr-20 00:00 10.0
2015-Apr-19 23:00 360 4 11.0
2015-Apr-19 22:00 12.0
2015-Apr-19 21:00 14.0
2015-Apr-19 20:00 15.0
2015-Apr-19 19:00 050 5 16.0
2015-Apr-19 18:00 070 6 17.0
2015-Apr-19 17:00 100 11 18.0
2015-Apr-19 16:00 090 13 20.0
2015-Apr-19 15:00 090 12 21.0
2015-Apr-19 14:00 110 3 24.0
2015-Apr-19 13:00 190 5 gusting 15 24.0